Time;durP1;ratioP1;P1;durP2;ratioP2;P2;SDS_P1;SDS_P2;PMS_P1;PMS_P2;Temp;Humidity;BMP_temperature;BMP_pressure;BME280_temperature;BME280_humidity;BME280_pressure;Samples;Min_cycle;Max_cycle;Signal;HPM_P1;HPM_P2
2021/12/27 00:00:41;;;;;;;;;44.00;37.50;;;;;;;;5037037;28;10966;-79
2021/12/27 00:03:09;;;;;;;;;39.25;36.75;;;;;;;;5038319;28;11019;-78
2021/12/27 00:05:36;;;;;;;;;41.25;37.00;;;;;;;;5039522;28;10917;-78
2021/12/27 00:08:03;;;;;;;;;32.50;32.50;;;;;;;;5041882;28;11028;-77
2021/12/27 00:10:31;;;;;;;;;32.00;32.00;;;;;;;;5043525;28;10838;-81
2021/12/27 00:13:02;;;;;;;;;33.25;31.25;;;;;;;;5042869;28;10874;-80
2021/12/27 00:15:29;;;;;;;;;32.75;28.75;;;;;;;;5043359;28;10828;-78
2021/12/27 00:17:57;;;;;;;;;44.50;33.75;;;;;;;;5043190;28;10747;-77
2021/12/27 00:20:25;;;;;;;;;24.50;18.75;;;;;;;;5037629;28;10724;-78
2021/12/27 00:22:52;;;;;;;;;36.00;33.75;;;;;;;;5042806;28;10658;-77
2021/12/27 00:25:20;;;;;;;;;32.75;31.00;;;;;;;;5040304;28;10490;-78
2021/12/27 00:27:48;;;;;;;;;28.00;25.00;;;;;;;;5041614;28;10641;-80
2021/12/27 00:30:18;;;;;;;;;32.50;26.50;;;;;;;;5041557;28;10432;-79
2021/12/27 00:32:46;;;;;;;;;30.50;23.00;;;;;;;;5044508;28;10568;-80
2021/12/27 00:35:15;;;;;;;;;22.25;22.25;;;;;;;;5041245;28;10386;-79
2021/12/27 00:37:43;;;;;;;;;17.00;14.50;;;;;;;;5039156;28;10375;-76
2021/12/27 00:40:12;;;;;;;;;20.75;20.25;;;;;;;;5043428;28;10269;-78
2021/12/27 00:42:40;;;;;;;;;22.00;18.75;;;;;;;;5039496;28;10440;-78
2021/12/27 00:45:08;;;;;;;;;24.75;21.25;;;;;;;;5043593;28;10289;-76
2021/12/27 00:47:37;;;;;;;;;21.50;21.50;;;;;;;;5036288;28;10296;-77
2021/12/27 00:50:04;;;;;;;;;23.25;23.25;;;;;;;;5038642;28;10218;-76
2021/12/27 00:52:32;;;;;;;;;22.50;22.50;;;;;;;;5034424;28;10368;-76
2021/12/27 00:55:00;;;;;;;;;22.00;22.00;;;;;;;;5040932;28;10327;-77
2021/12/27 00:57:27;;;;;;;;;26.75;26.75;;;;;;;;5037818;28;10345;-78
2021/12/27 00:59:54;;;;;;;;;17.50;14.50;;;;;;;;5040247;28;10233;-80
2021/12/27 01:02:21;;;;;;;;;30.25;30.25;;;;;;;;5040390;28;10271;-81
2021/12/27 01:04:50;;;;;;;;;30.25;25.50;;;;;;;;5040982;28;10603;-77
2021/12/27 01:07:17;;;;;;;;;24.50;24.25;;;;;;;;5043924;28;10407;-80
2021/12/27 01:09:58;;;;;;;;;29.75;25.75;;;;;;;;5041342;28;10291;-81
2021/12/27 01:12:34;;;;;;;;;21.75;20.00;;;;;;;;5046885;28;10441;-76
2021/12/27 01:15:12;;;;;;;;;21.75;18.50;;;;;;;;5042846;28;10102;-79
2021/12/27 01:17:41;;;;;;;;;20.50;19.75;;;;;;;;5049233;28;10160;-77
2021/12/27 01:20:12;;;;;;;;;18.00;16.50;;;;;;;;5048700;28;9958;-80
2021/12/27 01:22:40;;;;;;;;;21.75;17.75;;;;;;;;5047901;28;10118;-81
2021/12/27 01:25:10;;;;;;;;;17.00;17.00;;;;;;;;5046728;28;10031;-80
2021/12/27 01:27:37;;;;;;;;;18.25;18.25;;;;;;;;5052220;28;9852;-81
2021/12/27 01:30:12;;;;;;;;;18.50;18.25;;;;;;;;5049181;28;9933;-78
2021/12/27 01:32:45;;;;;;;;;10.00;10.00;;;;;;;;5047831;28;10057;-81
2021/12/27 01:35:14;;;;;;;;;12.50;12.50;;;;;;;;5038970;28;9982;-81
2021/12/27 01:37:42;;;;;;;;;18.00;17.75;;;;;;;;5040414;28;10063;-81
2021/12/27 01:40:11;;;;;;;;;17.50;15.75;;;;;;;;5043162;28;9948;-80
2021/12/27 01:42:38;;;;;;;;;14.00;14.00;;;;;;;;5045280;28;10157;-78
2021/12/27 01:45:06;;;;;;;;;19.00;17.25;;;;;;;;5045718;28;9768;-81
2021/12/27 01:47:33;;;;;;;;;15.50;15.50;;;;;;;;5044780;28;10692;-80
2021/12/27 01:50:03;;;;;;;;;18.75;17.75;;;;;;;;5044513;28;11181;-78
2021/12/27 01:52:32;;;;;;;;;16.75;16.50;;;;;;;;5033612;28;10240;-79
2021/12/27 01:54:59;;;;;;;;;18.50;15.50;;;;;;;;5032853;28;10090;-77
2021/12/27 01:57:26;;;;;;;;;22.50;18.00;;;;;;;;5043292;28;10084;-80
2021/12/27 01:59:53;;;;;;;;;15.75;15.75;;;;;;;;5041680;28;9939;-80
2021/12/27 02:02:21;;;;;;;;;18.75;18.00;;;;;;;;5039422;28;10168;-77
2021/12/27 02:04:48;;;;;;;;;13.75;13.75;;;;;;;;5046356;28;10068;-77
2021/12/27 02:07:15;;;;;;;;;25.50;21.50;;;;;;;;5045556;28;10007;-77
2021/12/27 02:09:56;;;;;;;;;24.50;21.00;;;;;;;;5042944;28;10264;-80
2021/12/27 02:12:23;;;;;;;;;24.00;23.00;;;;;;;;5045666;28;10268;-79
2021/12/27 02:14:51;;;;;;;;;28.75;28.75;;;;;;;;5043865;28;10187;-79
2021/12/27 02:17:19;;;;;;;;;19.00;19.00;;;;;;;;5045653;28;10221;-78
2021/12/27 02:19:50;;;;;;;;;24.25;21.75;;;;;;;;5043974;28;10258;-77
2021/12/27 02:22:18;;;;;;;;;18.25;16.25;;;;;;;;5042025;28;10147;-79
2021/12/27 02:24:45;;;;;;;;;23.00;23.00;;;;;;;;5043023;28;10819;-80
2021/12/27 02:27:15;;;;;;;;;20.50;18.00;;;;;;;;5043550;28;10223;-78
2021/12/27 02:29:42;;;;;;;;;14.00;14.00;;;;;;;;5046049;28;10821;-78
2021/12/27 02:32:10;;;;;;;;;22.50;15.25;;;;;;;;5035373;28;9752;-78
2021/12/27 02:34:37;;;;;;;;;18.75;18.75;;;;;;;;5046375;28;9990;-79
2021/12/27 02:37:06;;;;;;;;;18.75;18.00;;;;;;;;5035811;28;9947;-77
2021/12/27 02:39:33;;;;;;;;;15.25;15.25;;;;;;;;5044635;28;9940;-79
2021/12/27 02:42:01;;;;;;;;;12.75;12.75;;;;;;;;5045963;28;10021;-78
2021/12/27 02:44:28;;;;;;;;;12.75;12.75;;;;;;;;5036217;28;9905;-77
2021/12/27 02:46:55;;;;;;;;;16.00;14.25;;;;;;;;5043631;28;9969;-79
2021/12/27 02:49:23;;;;;;;;;18.50;14.00;;;;;;;;5040160;28;9861;-80
2021/12/27 02:51:52;;;;;;;;;17.50;17.50;;;;;;;;5041654;28;10494;-80
2021/12/27 02:54:21;;;;;;;;;17.50;14.75;;;;;;;;5044447;28;9975;-78
2021/12/27 02:56:49;;;;;;;;;13.25;11.25;;;;;;;;5041274;28;9783;-78
2021/12/27 02:59:16;;;;;;;;;13.75;12.25;;;;;;;;5040333;28;9709;-80
2021/12/27 03:01:44;;;;;;;;;8.25;8.25;;;;;;;;5035833;28;9675;-80
2021/12/27 03:04:11;;;;;;;;;14.00;11.00;;;;;;;;5043786;28;9732;-80
2021/12/27 03:06:38;;;;;;;;;10.50;9.75;;;;;;;;5044151;28;10461;-77
2021/12/27 03:09:06;;;;;;;;;11.50;11.50;;;;;;;;5044702;28;9716;-78
2021/12/27 03:11:34;;;;;;;;;10.00;10.00;;;;;;;;5043915;28;9647;-77
2021/12/27 03:14:02;;;;;;;;;10.75;10.25;;;;;;;;5042925;28;9820;-79
2021/12/27 03:16:31;;;;;;;;;11.00;11.00;;;;;;;;5038392;28;9711;-77
2021/12/27 03:18:58;;;;;;;;;12.50;11.00;;;;;;;;5034489;28;9868;-78
2021/12/27 03:21:26;;;;;;;;;10.25;7.75;;;;;;;;5039504;28;9573;-78
2021/12/27 03:23:54;;;;;;;;;12.00;12.00;;;;;;;;5042656;28;9727;-79
2021/12/27 03:26:21;;;;;;;;;10.50;8.00;;;;;;;;5041998;28;9621;-77
2021/12/27 03:28:50;;;;;;;;;7.25;7.25;;;;;;;;5043727;28;9761;-80
2021/12/27 03:31:19;;;;;;;;;8.75;6.25;;;;;;;;5041676;28;9583;-81
2021/12/27 03:33:46;;;;;;;;;13.00;10.25;;;;;;;;5045031;28;9503;-80
2021/12/27 03:36:14;;;;;;;;;10.00;8.50;;;;;;;;5031805;28;9634;-77
2021/12/27 03:38:44;;;;;;;;;10.25;8.25;;;;;;;;5031067;28;9645;-80
2021/12/27 03:41:15;;;;;;;;;7.75;7.75;;;;;;;;5042897;28;9645;-78
2021/12/27 03:43:43;;;;;;;;;12.00;10.75;;;;;;;;5044733;28;9729;-79
2021/12/27 03:46:12;;;;;;;;;8.50;8.50;;;;;;;;5042577;28;9831;-78
2021/12/27 03:48:40;;;;;;;;;14.25;8.75;;;;;;;;5042187;28;9698;-78
2021/12/27 03:51:07;;;;;;;;;12.00;9.50;;;;;;;;5042937;28;9724;-77
2021/12/27 03:53:35;;;;;;;;;8.00;8.00;;;;;;;;5043485;28;9627;-79
2021/12/27 03:56:02;;;;;;;;;7.75;5.50;;;;;;;;5043761;28;9718;-78
2021/12/27 03:58:33;;;;;;;;;8.00;8.00;;;;;;;;5041374;28;9557;-77
2021/12/27 04:01:13;;;;;;;;;7.50;7.50;;;;;;;;5036835;28;9761;-79
2021/12/27 04:03:43;;;;;;;;;9.00;9.00;;;;;;;;5038754;28;9631;-79
2021/12/27 04:06:10;;;;;;;;;6.25;6.25;;;;;;;;5039274;28;9477;-79
2021/12/27 04:08:37;;;;;;;;;7.00;7.00;;;;;;;;5043536;28;9552;-78
2021/12/27 04:11:05;;;;;;;;;8.33;7.00;;;;;;;;5041469;28;10133;-79
2021/12/27 04:13:33;;;;;;;;;7.00;6.00;;;;;;;;5042167;28;9344;-78
2021/12/27 04:16:00;;;;;;;;;6.00;6.00;;;;;;;;5041079;28;10348;-79
2021/12/27 04:18:28;;;;;;;;;3.00;3.00;;;;;;;;5043483;28;9491;-78
2021/12/27 04:20:57;;;;;;;;;3.00;3.00;;;;;;;;5040152;28;9473;-79
2021/12/27 04:23:24;;;;;;;;;3.67;3.67;;;;;;;;5043034;28;9446;-79
2021/12/27 04:25:52;;;;;;;;;2.00;2.00;;;;;;;;5041944;28;9498;-78
2021/12/27 04:28:20;;;;;;;;;2.00;1.00;;;;;;;;5043175;28;9409;-78
2021/12/27 04:30:47;;;;;;;;;6.33;4.00;;;;;;;;5041303;28;9251;-79
2021/12/27 04:33:15;;;;;;;;;4.00;4.00;;;;;;;;5042839;28;9377;-81
2021/12/27 04:35:42;;;;;;;;;6.00;3.00;;;;;;;;5042891;28;9293;-80
2021/12/27 04:38:11;;;;;;;;;1.33;1.33;;;;;;;;5041781;28;9980;-80
2021/12/27 04:40:42;;;;;;;;;3.00;3.00;;;;;;;;5042737;28;9282;-80
2021/12/27 04:43:11;;;;;;;;;2.00;2.00;;;;;;;;5042173;28;9277;-78
2021/12/27 04:45:39;;;;;;;;;3.00;2.00;;;;;;;;5038233;28;9300;-80
2021/12/27 04:48:06;;;;;;;;;3.00;1.33;;;;;;;;5042938;28;9416;-78
2021/12/27 04:50:34;;;;;;;;;2.33;2.33;;;;;;;;5041999;28;9385;-79
2021/12/27 04:53:01;;;;;;;;;3.75;2.25;;;;;;;;5045210;28;9350;-78
2021/12/27 04:55:30;;;;;;;;;3.00;3.00;;;;;;;;5045712;28;9501;-78
2021/12/27 04:57:58;;;;;;;;;7.00;2.00;;;;;;;;5004948;28;1162730;-78
2021/12/27 05:00:26;;;;;;;;;3.00;3.00;;;;;;;;5056457;28;8804;-80
2021/12/27 05:02:53;;;;;;;;;6.00;3.33;;;;;;;;5047926;28;9501;-80
2021/12/27 05:05:20;;;;;;;;;3.00;3.00;;;;;;;;5039644;28;9464;-80
2021/12/27 05:07:48;;;;;;;;;2.33;2.33;;;;;;;;5038437;28;9204;-81
2021/12/27 05:10:17;;;;;;;;;5.00;5.00;;;;;;;;5041710;28;9269;-79
2021/12/27 05:15:48;;;;;;;;;1.00;1.00;;;;;;;;5020669;28;9429;-79
2021/12/27 05:18:16;;;;;;;;;4.00;4.00;;;;;;;;5045983;28;9465;-79
2021/12/27 05:20:43;;;;;;;;;6.33;4.67;;;;;;;;5045452;28;9277;-79
2021/12/27 05:23:11;;;;;;;;;5.00;4.00;;;;;;;;5045361;28;10012;-79
2021/12/27 05:25:38;;;;;;;;;3.33;3.33;;;;;;;;5045043;28;9638;-79
2021/12/27 05:28:09;;;;;;;;;4.67;4.00;;;;;;;;5032836;28;9347;-80
2021/12/27 05:30:37;;;;;;;;;4.00;4.00;;;;;;;;5037028;28;9229;-79
2021/12/27 05:33:04;;;;;;;;;3.67;3.33;;;;;;;;5043903;28;9546;-80
2021/12/27 05:35:32;;;;;;;;;4.00;4.00;;;;;;;;5044860;28;9292;-77
2021/12/27 05:37:59;;;;;;;;;6.00;3.75;;;;;;;;5044425;28;9440;-78
2021/12/27 05:40:26;;;;;;;;;3.50;2.75;;;;;;;;5045031;28;9411;-78
2021/12/27 05:42:54;;;;;;;;;4.00;4.00;;;;;;;;5046326;28;9590;-77
2021/12/27 05:45:23;;;;;;;;;3.00;3.00;;;;;;;;5043679;28;9527;-79
2021/12/27 05:47:51;;;;;;;;;9.50;6.50;;;;;;;;5039415;28;9643;-81
2021/12/27 05:50:19;;;;;;;;;4.50;4.50;;;;;;;;5042674;28;9666;-80
2021/12/27 05:52:46;;;;;;;;;6.25;5.50;;;;;;;;5045788;28;9591;-80
2021/12/27 05:55:14;;;;;;;;;4.00;3.00;;;;;;;;5042793;28;9621;-80
2021/12/27 05:57:41;;;;;;;;;6.00;6.00;;;;;;;;5044870;28;9309;-79
2021/12/27 06:00:13;;;;;;;;;3.25;3.25;;;;;;;;5045111;28;9508;-76
2021/12/27 06:02:41;;;;;;;;;3.00;3.00;;;;;;;;5045436;28;9555;-78
2021/12/27 06:05:09;;;;;;;;;3.75;3.75;;;;;;;;5046052;28;9717;-78
2021/12/27 06:07:37;;;;;;;;;4.00;4.00;;;;;;;;5043283;28;9426;-77
2021/12/27 06:10:05;;;;;;;;;7.00;4.00;;;;;;;;5045547;28;9486;-79
2021/12/27 06:12:33;;;;;;;;;4.50;4.50;;;;;;;;5047002;28;10210;-81
2021/12/27 06:15:00;;;;;;;;;5.50;5.00;;;;;;;;5045476;28;9475;-76
2021/12/27 06:17:31;;;;;;;;;5.00;5.00;;;;;;;;5038620;28;9559;-76
2021/12/27 06:20:00;;;;;;;;;9.00;3.75;;;;;;;;5042414;28;9673;-75
2021/12/27 06:22:28;;;;;;;;;7.50;5.50;;;;;;;;5037354;28;9803;-78
2021/12/27 06:24:56;;;;;;;;;11.50;8.75;;;;;;;;5036374;28;9733;-79
2021/12/27 06:27:23;;;;;;;;;8.25;7.00;;;;;;;;5039127;28;9910;-78
2021/12/27 06:29:50;;;;;;;;;12.00;8.50;;;;;;;;5043938;28;9935;-81
2021/12/27 06:32:17;;;;;;;;;4.25;4.25;;;;;;;;5043247;28;9748;-77
2021/12/27 06:34:45;;;;;;;;;12.50;8.25;;;;;;;;5045550;28;9768;-81
2021/12/27 06:37:13;;;;;;;;;12.50;8.50;;;;;;;;5044447;28;9930;-80
2021/12/27 06:39:41;;;;;;;;;6.00;3.75;;;;;;;;5035527;28;9907;-82
2021/12/27 06:42:09;;;;;;;;;8.00;6.25;;;;;;;;5043456;28;9709;-79
2021/12/27 06:44:36;;;;;;;;;8.50;7.00;;;;;;;;5045061;28;10082;-83
2021/12/27 06:47:04;;;;;;;;;9.50;8.75;;;;;;;;5043653;28;9747;-79
2021/12/27 06:49:32;;;;;;;;;7.25;6.25;;;;;;;;5044900;28;10539;-84
2021/12/27 06:52:00;;;;;;;;;8.00;7.25;;;;;;;;5046343;28;9771;-79
2021/12/27 06:54:29;;;;;;;;;12.00;9.00;;;;;;;;5045615;28;9917;-82
2021/12/27 06:56:59;;;;;;;;;8.50;7.50;;;;;;;;5044829;28;9761;-81
2021/12/27 06:59:27;;;;;;;;;11.25;6.75;;;;;;;;5045726;28;9939;-79
2021/12/27 07:01:54;;;;;;;;;6.50;6.50;;;;;;;;5044412;28;9897;-80
2021/12/27 07:04:22;;;;;;;;;8.50;7.00;;;;;;;;5045085;28;9962;-79
2021/12/27 07:06:49;;;;;;;;;7.00;6.00;;;;;;;;5031496;28;10095;-81
2021/12/27 07:09:16;;;;;;;;;9.50;6.25;;;;;;;;5045484;28;9791;-82
2021/12/27 07:11:45;;;;;;;;;3.25;3.25;;;;;;;;5044787;28;9716;-81
2021/12/27 07:14:13;;;;;;;;;4.50;3.00;;;;;;;;5044444;28;9670;-82
2021/12/27 07:16:40;;;;;;;;;3.25;3.25;;;;;;;;5045305;28;10385;-82
2021/12/27 07:19:07;;;;;;;;;8.75;8.75;;;;;;;;5041813;28;9647;-81
2021/12/27 07:21:35;;;;;;;;;8.25;6.50;;;;;;;;5043608;28;9748;-80
2021/12/27 07:24:02;;;;;;;;;8.25;7.00;;;;;;;;5044156;28;9919;-82
2021/12/27 07:26:29;;;;;;;;;7.00;7.00;;;;;;;;5045394;28;10720;-83
2021/12/27 07:28:58;;;;;;;;;7.25;7.25;;;;;;;;5052095;28;10029;-83
2021/12/27 07:31:25;;;;;;;;;11.75;7.00;;;;;;;;5037624;28;9805;-82
2021/12/27 07:33:53;;;;;;;;;5.50;5.50;;;;;;;;5045539;28;9702;-82
2021/12/27 07:36:21;;;;;;;;;7.50;7.50;;;;;;;;5027060;28;9629;-81
2021/12/27 07:38:48;;;;;;;;;7.75;7.25;;;;;;;;5038557;28;9897;-81
2021/12/27 07:41:16;;;;;;;;;6.25;6.25;;;;;;;;5039419;28;9873;-81
2021/12/27 07:43:43;;;;;;;;;11.25;7.75;;;;;;;;5036022;28;9778;-82
2021/12/27 07:46:12;;;;;;;;;9.75;9.75;;;;;;;;5040477;28;10725;-75
2021/12/27 07:48:39;;;;;;;;;4.00;4.00;;;;;;;;5037316;28;9871;-75
2021/12/27 07:51:06;;;;;;;;;9.75;7.75;;;;;;;;5041065;28;10162;-76
2021/12/27 07:53:34;;;;;;;;;9.00;7.25;;;;;;;;5035984;28;10646;-76
2021/12/27 07:56:01;;;;;;;;;8.25;8.25;;;;;;;;5032676;28;9805;-74
2021/12/27 07:58:28;;;;;;;;;9.50;9.50;;;;;;;;5039917;28;10070;-75
2021/12/27 08:00:56;;;;;;;;;8.00;7.00;;;;;;;;5038234;28;10729;-74
2021/12/27 08:03:24;;;;;;;;;10.25;8.00;;;;;;;;5040953;28;10723;-73
2021/12/27 08:05:52;;;;;;;;;9.75;9.75;;;;;;;;5042743;28;10150;-73
2021/12/27 08:08:19;;;;;;;;;11.00;9.25;;;;;;;;5035513;28;10018;-74
2021/12/27 08:10:47;;;;;;;;;7.25;7.25;;;;;;;;5040643;28;10053;-75
2021/12/27 08:13:17;;;;;;;;;9.75;9.75;;;;;;;;5039409;28;10087;-75
2021/12/27 08:15:44;;;;;;;;;10.00;7.00;;;;;;;;5036085;28;9931;-75
2021/12/27 08:18:11;;;;;;;;;8.25;6.75;;;;;;;;5040764;28;9876;-75
2021/12/27 08:20:40;;;;;;;;;10.50;7.25;;;;;;;;5037327;28;9894;-75
2021/12/27 08:23:07;;;;;;;;;9.00;7.25;;;;;;;;5040533;28;9716;-75
2021/12/27 08:25:35;;;;;;;;;5.25;4.75;;;;;;;;5041148;28;9823;-75
2021/12/27 08:28:03;;;;;;;;;4.50;4.50;;;;;;;;5036435;28;9801;-75
2021/12/27 08:30:31;;;;;;;;;7.00;7.00;;;;;;;;5039437;28;9713;-74
2021/12/27 08:33:00;;;;;;;;;6.25;6.25;;;;;;;;5038666;28;9891;-75
2021/12/27 08:35:27;;;;;;;;;5.25;5.25;;;;;;;;5041424;28;10605;-75
2021/12/27 08:37:56;;;;;;;;;4.50;4.50;;;;;;;;5040575;28;9730;-75
2021/12/27 08:40:23;;;;;;;;;5.00;5.00;;;;;;;;5038246;28;9889;-76
2021/12/27 08:42:51;;;;;;;;;8.75;7.00;;;;;;;;5039628;28;9781;-74
2021/12/27 08:45:19;;;;;;;;;8.00;6.25;;;;;;;;5041241;28;10613;-73
2021/12/27 08:47:46;;;;;;;;;6.25;6.25;;;;;;;;5039008;28;9816;-74
2021/12/27 08:50:17;;;;;;;;;8.25;5.75;;;;;;;;5037591;28;10000;-76
2021/12/27 08:52:44;;;;;;;;;8.50;6.25;;;;;;;;5041570;28;10015;-75
2021/12/27 08:55:14;;;;;;;;;10.25;7.75;;;;;;;;5036184;28;9797;-75
2021/12/27 08:57:43;;;;;;;;;9.75;7.75;;;;;;;;5038679;28;9938;-76
2021/12/27 09:00:13;;;;;;;;;6.25;6.25;;;;;;;;5039694;28;9908;-76
2021/12/27 09:02:40;;;;;;;;;7.00;7.00;;;;;;;;5038931;28;9773;-75
2021/12/27 09:05:08;;;;;;;;;9.00;7.00;;;;;;;;5042216;28;9761;-75
2021/12/27 09:07:36;;;;;;;;;10.00;10.00;;;;;;;;5041334;28;9787;-75
2021/12/27 09:10:04;;;;;;;;;7.25;7.25;;;;;;;;5039119;28;10161;-75
2021/12/27 09:12:33;;;;;;;;;8.50;8.50;;;;;;;;5039621;28;9919;-73
2021/12/27 09:15:01;;;;;;;;;6.75;6.75;;;;;;;;5043441;28;9986;-73
2021/12/27 09:17:28;;;;;;;;;9.00;7.75;;;;;;;;5043580;28;9968;-74
2021/12/27 09:19:55;;;;;;;;;8.50;7.00;;;;;;;;5039962;28;9971;-74
2021/12/27 09:22:23;;;;;;;;;6.00;6.00;;;;;;;;5042354;28;9962;-74
2021/12/27 09:24:50;;;;;;;;;8.25;6.25;;;;;;;;5043402;28;9881;-75
2021/12/27 09:27:18;;;;;;;;;6.75;6.75;;;;;;;;5043541;28;10035;-75
2021/12/27 09:29:46;;;;;;;;;6.50;4.75;;;;;;;;5043032;28;9999;-74
2021/12/27 09:32:15;;;;;;;;;6.25;6.25;;;;;;;;5042232;28;9873;-75
2021/12/27 09:34:43;;;;;;;;;5.00;5.00;;;;;;;;5035034;28;10098;-75
2021/12/27 09:37:11;;;;;;;;;4.50;3.75;;;;;;;;5042287;28;9914;-75
2021/12/27 09:39:38;;;;;;;;;5.25;5.25;;;;;;;;5044159;28;10044;-74
2021/12/27 09:42:07;;;;;;;;;6.50;6.50;;;;;;;;5046732;28;9855;-74
2021/12/27 09:44:34;;;;;;;;;10.25;8.75;;;;;;;;5045574;28;10009;-74
2021/12/27 09:47:03;;;;;;;;;6.50;6.50;;;;;;;;5046037;28;9973;-76
2021/12/27 09:49:36;;;;;;;;;7.25;7.25;;;;;;;;5046309;28;9938;-75
2021/12/27 09:52:06;;;;;;;;;8.00;6.75;;;;;;;;5042591;28;9843;-74
2021/12/27 09:54:33;;;;;;;;;6.00;6.00;;;;;;;;5046382;28;10505;-74
2021/12/27 09:57:01;;;;;;;;;7.25;7.25;;;;;;;;5042294;28;9774;-74
2021/12/27 09:59:28;;;;;;;;;5.75;5.75;;;;;;;;5043595;28;9951;-75
2021/12/27 10:01:56;;;;;;;;;5.25;5.25;;;;;;;;5042655;28;9987;-74
2021/12/27 10:04:25;;;;;;;;;4.25;4.25;;;;;;;;5044327;28;9930;-75
2021/12/27 10:06:52;;;;;;;;;7.75;5.00;;;;;;;;5045621;28;9796;-75
2021/12/27 10:09:21;;;;;;;;;3.00;3.00;;;;;;;;5042552;28;9955;-75
2021/12/27 10:11:48;;;;;;;;;4.00;4.00;;;;;;;;5046218;28;9763;-75
2021/12/27 10:14:17;;;;;;;;;2.75;2.75;;;;;;;;5045342;28;10457;-75
2021/12/27 10:16:47;;;;;;;;;5.25;5.25;;;;;;;;5040075;28;9783;-75
2021/12/27 10:19:16;;;;;;;;;4.00;4.00;;;;;;;;5044561;28;9797;-74
2021/12/27 10:21:46;;;;;;;;;4.00;4.00;;;;;;;;5043902;28;9923;-74
2021/12/27 10:24:16;;;;;;;;;4.00;4.00;;;;;;;;5045759;28;9829;-75
2021/12/27 10:26:45;;;;;;;;;10.25;6.25;;;;;;;;5043267;28;9881;-74
2021/12/27 10:29:15;;;;;;;;;5.25;5.25;;;;;;;;5045310;28;9707;-74
2021/12/27 10:32:04;;;;;;;;;4.75;3.50;;;;;;;;5042541;28;9577;-75
2021/12/27 10:34:34;;;;;;;;;7.00;7.00;;;;;;;;5046162;28;9785;-74
2021/12/27 10:37:07;;;;;;;;;5.25;5.00;;;;;;;;5044503;28;9716;-74
2021/12/27 10:39:53;;;;;;;;;6.75;6.75;;;;;;;;5044641;28;9803;-75
2021/12/27 10:42:23;;;;;;;;;7.00;6.00;;;;;;;;5044965;28;9805;-74
2021/12/27 10:44:53;;;;;;;;;8.25;6.25;;;;;;;;5045200;28;9630;-75
2021/12/27 10:47:29;;;;;;;;;9.50;5.50;;;;;;;;5042333;28;9753;-74
2021/12/27 10:50:03;;;;;;;;;5.75;5.25;;;;;;;;5041855;28;9888;-74
2021/12/27 10:52:53;;;;;;;;;6.00;6.00;;;;;;;;5046248;28;9789;-75
2021/12/27 10:55:22;;;;;;;;;6.25;6.25;;;;;;;;5043188;28;9859;-75
2021/12/27 10:57:50;;;;;;;;;5.00;3.75;;;;;;;;5043482;28;9980;-75
2021/12/27 11:00:23;;;;;;;;;4.50;4.50;;;;;;;;5042341;28;9923;-75
2021/12/27 11:02:51;;;;;;;;;10.50;10.50;;;;;;;;5041852;28;9588;-75
2021/12/27 11:05:23;;;;;;;;;5.00;5.00;;;;;;;;5045121;28;9875;-74
2021/12/27 11:07:52;;;;;;;;;5.25;5.25;;;;;;;;5044029;28;9703;-75
2021/12/27 11:10:21;;;;;;;;;3.25;3.25;;;;;;;;5044841;28;10423;-75
2021/12/27 11:12:49;;;;;;;;;7.50;5.75;;;;;;;;5044631;28;9698;-73
2021/12/27 11:15:17;;;;;;;;;5.25;5.25;;;;;;;;5044438;28;10727;-73
2021/12/27 11:17:45;;;;;;;;;7.75;6.00;;;;;;;;5044852;28;9776;-73
2021/12/27 11:20:15;;;;;;;;;5.75;5.25;;;;;;;;5046440;28;9747;-74
2021/12/27 11:22:44;;;;;;;;;5.50;5.50;;;;;;;;5046180;28;9593;-74
2021/12/27 11:25:24;;;;;;;;;7.00;7.00;;;;;;;;5039139;28;9813;-77
2021/12/27 11:27:51;;;;;;;;;7.50;6.00;;;;;;;;5048370;28;9967;-75
2021/12/27 11:30:24;;;;;;;;;4.75;4.75;;;;;;;;5043678;28;9801;-74
2021/12/27 11:33:13;;;;;;;;;8.25;8.25;;;;;;;;5045796;28;9812;-74
2021/12/27 11:36:00;;;;;;;;;7.00;7.00;;;;;;;;5042600;28;10037;-75
2021/12/27 11:38:31;;;;;;;;;11.50;8.00;;;;;;;;5045248;28;9872;-74
2021/12/27 11:41:02;;;;;;;;;13.00;10.00;;;;;;;;5031420;28;9896;-75
2021/12/27 11:43:47;;;;;;;;;10.25;6.00;;;;;;;;5027748;28;10026;-74
2021/12/27 11:46:15;;;;;;;;;12.00;8.75;;;;;;;;5029902;28;10000;-75
2021/12/27 11:48:46;;;;;;;;;6.75;6.75;;;;;;;;5044787;28;10080;-75
2021/12/27 11:51:14;;;;;;;;;6.50;6.50;;;;;;;;5037338;28;9872;-74
2021/12/27 11:53:49;;;;;;;;;6.75;6.75;;;;;;;;5043250;28;9947;-75
2021/12/27 11:56:35;;;;;;;;;7.75;7.75;;;;;;;;5032787;28;10034;-74
2021/12/27 11:59:02;;;;;;;;;7.75;7.00;;;;;;;;5039286;28;10339;-75
2021/12/27 12:01:39;;;;;;;;;6.25;6.25;;;;;;;;5042805;28;10009;-75
2021/12/27 12:04:06;;;;;;;;;7.25;7.25;;;;;;;;5043790;28;9973;-74
2021/12/27 12:06:41;;;;;;;;;7.25;6.50;;;;;;;;5036632;28;10099;-75
2021/12/27 12:09:15;;;;;;;;;8.00;5.00;;;;;;;;5049693;28;10069;-74
2021/12/27 12:11:45;;;;;;;;;4.75;4.75;;;;;;;;5047598;28;10118;-75
2021/12/27 12:14:26;;;;;;;;;5.25;3.75;;;;;;;;5047265;28;10099;-76
2021/12/27 12:16:53;;;;;;;;;6.25;6.25;;;;;;;;5041505;28;10086;-76
2021/12/27 12:19:40;;;;;;;;;7.75;6.50;;;;;;;;5036589;28;10039;-75
2021/12/27 12:22:08;;;;;;;;;8.75;8.75;;;;;;;;5031610;28;10186;-76
2021/12/27 12:24:35;;;;;;;;;11.75;11.75;;;;;;;;5040691;28;11255;-74
2021/12/27 12:27:09;;;;;;;;;11.00;11.00;;;;;;;;5037076;28;10200;-74
2021/12/27 12:29:39;;;;;;;;;8.00;8.00;;;;;;;;5030671;28;10389;-74
2021/12/27 12:32:08;;;;;;;;;11.25;11.25;;;;;;;;5029365;28;10165;-76
2021/12/27 12:34:36;;;;;;;;;14.50;12.75;;;;;;;;5036255;28;10119;-74
2021/12/27 12:37:06;;;;;;;;;12.25;12.25;;;;;;;;5040059;28;10353;-74
2021/12/27 12:39:39;;;;;;;;;12.50;12.50;;;;;;;;5037738;28;11024;-73
2021/12/27 12:42:11;;;;;;;;;9.00;7.00;;;;;;;;5039353;28;10613;-79
2021/12/27 12:44:50;;;;;;;;;8.00;8.00;;;;;;;;5025906;28;9878;-77
2021/12/27 12:47:18;;;;;;;;;7.25;7.25;;;;;;;;5039467;28;9885;-75
2021/12/27 12:49:45;;;;;;;;;7.50;7.50;;;;;;;;5037805;28;9747;-74
2021/12/27 12:52:13;;;;;;;;;6.00;6.00;;;;;;;;5035472;28;9850;-75
2021/12/27 12:54:42;;;;;;;;;7.75;7.75;;;;;;;;5037766;28;9868;-74
2021/12/27 12:57:14;;;;;;;;;7.25;7.25;;;;;;;;5037894;28;9799;-74
2021/12/27 12:59:43;;;;;;;;;7.25;7.25;;;;;;;;5037998;28;9739;-74
2021/12/27 13:02:13;;;;;;;;;8.25;8.25;;;;;;;;5038610;28;9843;-74
2021/12/27 13:04:49;;;;;;;;;8.50;8.50;;;;;;;;5037605;28;9878;-76
2021/12/27 13:07:32;;;;;;;;;7.50;7.50;;;;;;;;5042484;28;9859;-75
2021/12/27 13:09:59;;;;;;;;;3.50;3.50;;;;;;;;5039997;28;10768;-74
2021/12/27 13:12:29;;;;;;;;;8.00;3.25;;;;;;;;5043757;28;10468;-74
2021/12/27 13:14:57;;;;;;;;;6.25;4.00;;;;;;;;5045729;28;9789;-74
2021/12/27 13:17:26;;;;;;;;;3.00;3.00;;;;;;;;5043039;28;9645;-74
2021/12/27 13:20:02;;;;;;;;;5.33;3.00;;;;;;;;5043831;28;9588;-75
2021/12/27 13:22:47;;;;;;;;;3.33;3.00;;;;;;;;5043573;28;9495;-75
2021/12/27 13:25:16;;;;;;;;;3.00;3.00;;;;;;;;5043829;28;9297;-74
2021/12/27 13:27:45;;;;;;;;;5.33;5.33;;;;;;;;5042479;28;9360;-74
2021/12/27 13:30:14;;;;;;;;;3.00;3.00;;;;;;;;5043854;28;9193;-74
2021/12/27 13:32:42;;;;;;;;;3.33;3.33;;;;;;;;5036793;28;9104;-80
2021/12/27 13:35:12;;;;;;;;;4.00;4.00;;;;;;;;5043412;28;9130;-76
2021/12/27 13:37:39;;;;;;;;;4.00;4.00;;;;;;;;5040445;28;9673;-74
2021/12/27 13:40:10;;;;;;;;;2.00;2.00;;;;;;;;5028254;28;9261;-74
2021/12/27 13:42:39;;;;;;;;;5.33;4.00;;;;;;;;5046022;28;8980;-75
2021/12/27 13:45:16;;;;;;;;;4.00;4.00;;;;;;;;5042251;28;9130;-73
2021/12/27 13:47:50;;;;;;;;;4.00;4.00;;;;;;;;5046732;28;9118;-73
2021/12/27 13:50:25;;;;;;;;;4.00;4.00;;;;;;;;5045818;28;9055;-75
2021/12/27 13:52:53;;;;;;;;;3.33;3.33;;;;;;;;5042082;28;9100;-75
2021/12/27 13:55:25;;;;;;;;;6.00;6.00;;;;;;;;5046768;28;9090;-75
2021/12/27 13:57:53;;;;;;;;;2.00;2.00;;;;;;;;5041544;28;9869;-74
2021/12/27 14:00:28;;;;;;;;;3.00;3.00;;;;;;;;5043886;28;8960;-75
2021/12/27 14:02:55;;;;;;;;;3.67;3.67;;;;;;;;5045754;28;8903;-75
2021/12/27 14:05:27;;;;;;;;;2.00;2.00;;;;;;;;5045940;28;9087;-75
2021/12/27 14:07:55;;;;;;;;;4.00;4.00;;;;;;;;5046542;28;9463;-74
2021/12/27 14:10:23;;;;;;;;;2.25;2.25;;;;;;;;5040300;28;9055;-75
2021/12/27 14:13:08;;;;;;;;;1.00;1.00;;;;;;;;5046953;28;8858;-74
2021/12/27 14:15:40;;;;;;;;;2.00;2.00;;;;;;;;5045042;28;8912;-73
2021/12/27 14:18:11;;;;;;;;;2.00;1.00;;;;;;;;5045974;28;8888;-75
2021/12/27 14:20:39;;;;;;;;;2.50;1.75;;;;;;;;5044444;28;9788;-75
2021/12/27 14:23:11;;;;;;;;;1.50;1.50;;;;;;;;5045018;28;8889;-74
2021/12/27 14:25:39;;;;;;;;;2.00;2.00;;;;;;;;5042484;28;8861;-74
2021/12/27 14:28:12;;;;;;;;;1.25;1.00;;;;;;;;5045093;28;8912;-74
2021/12/27 14:30:41;;;;;;;;;2.75;2.00;;;;;;;;5045541;28;8801;-74
2021/12/27 14:33:11;;;;;;;;;1.00;1.00;;;;;;;;5043269;28;9792;-75
2021/12/27 14:35:40;;;;;;;;;1.50;1.50;;;;;;;;5043770;28;8939;-75
2021/12/27 14:38:10;;;;;;;;;1.25;1.25;;;;;;;;5044753;28;9012;-75
2021/12/27 14:40:40;;;;;;;;;2.75;2.00;;;;;;;;5045755;28;9015;-74
2021/12/27 14:43:08;;;;;;;;;1.00;1.00;;;;;;;;5045407;28;8954;-74
2021/12/27 14:45:36;;;;;;;;;3.75;2.00;;;;;;;;5045153;28;8908;-74
2021/12/27 14:48:05;;;;;;;;;1.00;1.00;;;;;;;;5046048;28;8875;-75
2021/12/27 14:50:33;;;;;;;;;2.00;2.00;;;;;;;;5044782;28;8896;-74
2021/12/27 14:53:01;;;;;;;;;1.00;1.00;;;;;;;;5045692;28;8906;-75
2021/12/27 14:55:29;;;;;;;;;3.25;2.00;;;;;;;;5031723;28;8877;-75
2021/12/27 14:57:56;;;;;;;;;3.00;3.00;;;;;;;;5045461;28;9689;-74
2021/12/27 15:00:26;;;;;;;;;3.75;3.75;;;;;;;;5043820;28;8886;-75